createdAt,value
2023-04-18T00:00:40.017Z,637.06
2023-04-18T00:01:40.079Z,637.51
2023-04-18T00:02:40.432Z,636.52
2023-04-18T00:03:40.200Z,635.56
2023-04-18T00:04:40.032Z,635.20
2023-04-18T00:05:39.965Z,634.97
2023-04-18T00:06:39.960Z,634.65
2023-04-18T00:07:39.946Z,636.06
2023-04-18T00:08:39.933Z,636.22
2023-04-18T00:09:39.974Z,637.18
2023-04-18T00:10:39.905Z,637.07
2023-04-18T00:11:39.909Z,636.98
2023-04-18T00:12:39.900Z,637.79
2023-04-18T00:13:39.874Z,637.84
2023-04-18T00:14:39.865Z,638.53
2023-04-18T00:15:39.859Z,638.10
2023-04-18T00:16:39.896Z,637.82
2023-04-18T00:17:40.078Z,640.95
2023-04-18T00:18:39.833Z,639.82
2023-04-18T00:19:39.825Z,641.68
2023-04-18T00:20:39.798Z,644.84
2023-04-18T00:21:39.788Z,649.26
2023-04-18T00:22:39.800Z,648.71
2023-04-18T00:23:39.819Z,649.03
2023-04-18T00:24:39.757Z,650.33
2023-04-18T00:25:39.747Z,652.69
2023-04-18T00:26:39.729Z,653.44
2023-04-18T00:27:39.748Z,653.95
2023-04-18T00:28:39.731Z,655.80
2023-04-18T00:29:39.702Z,656.10
2023-04-18T00:30:39.710Z,657.49
2023-04-18T00:31:39.689Z,658.75
2023-04-18T00:32:39.723Z,657.87
2023-04-18T00:33:39.655Z,658.21
2023-04-18T00:34:39.675Z,659.76
2023-04-18T00:35:39.631Z,658.56
2023-04-18T00:36:39.624Z,657.54
2023-04-18T00:37:39.631Z,655.39
2023-04-18T00:38:39.607Z,654.25
2023-04-18T00:39:39.591Z,654.45
2023-04-18T00:40:39.580Z,654.41
2023-04-18T00:41:39.577Z,654.23
2023-04-18T00:42:47.068Z,652.19
2023-04-18T00:43:39.543Z,653.69
2023-04-18T00:44:39.536Z,654.80
2023-04-18T00:45:39.533Z,651.98
2023-04-18T00:46:39.559Z,652.14
2023-04-18T00:47:39.513Z,652.22
2023-04-18T00:48:39.492Z,652.70
2023-04-18T00:49:39.476Z,652.40
2023-04-18T00:50:39.502Z,653.88
2023-04-18T00:51:39.459Z,654.97
2023-04-18T00:52:39.461Z,653.48
2023-04-18T00:53:39.440Z,651.28
2023-04-18T00:54:39.437Z,651.44
2023-04-18T00:55:39.424Z,650.25
2023-04-18T00:56:39.407Z,649.34
2023-04-18T00:57:39.415Z,648.88
2023-04-18T00:58:39.383Z,645.15
2023-04-18T00:59:39.368Z,644.34
2023-04-18T01:00:39.379Z,642.05
2023-04-18T01:01:39.394Z,639.28
2023-04-18T01:02:39.446Z,638.67
2023-04-18T01:03:39.533Z,640.21
2023-04-18T01:04:39.389Z,640.44
2023-04-18T01:05:39.315Z,640.91
2023-04-18T01:06:39.324Z,640.39
2023-04-18T01:07:39.283Z,641.16
2023-04-18T01:08:39.868Z,641.01
2023-04-18T01:09:39.273Z,640.71
2023-04-18T01:10:39.263Z,639.47
2023-04-18T01:11:39.237Z,639.23
2023-04-18T01:12:39.233Z,639.39
2023-04-18T01:13:39.256Z,638.98
2023-04-18T01:14:39.218Z,639.23
2023-04-18T01:15:39.230Z,640.26
2023-04-18T01:16:39.192Z,640.28
2023-04-18T01:17:39.209Z,639.72
2023-04-18T01:18:39.175Z,640.00
2023-04-18T01:19:39.167Z,638.54
2023-04-18T01:20:39.140Z,640.39
2023-04-18T01:21:39.127Z,640.12
2023-04-18T01:22:39.149Z,640.94
2023-04-18T01:23:39.119Z,640.92
2023-04-18T01:24:39.124Z,641.96
2023-04-18T01:25:39.087Z,641.32
2023-04-18T01:26:39.086Z,641.19
2023-04-18T01:27:39.070Z,641.15
2023-04-18T01:28:39.060Z,641.34
2023-04-18T01:29:39.127Z,641.63
2023-04-18T01:30:39.049Z,644.83
2023-04-18T01:31:39.166Z,645.85
2023-04-18T01:32:39.148Z,647.26
2023-04-18T01:33:39.011Z,647.23
2023-04-18T01:34:39.022Z,646.87
2023-04-18T01:35:39.019Z,647.39
2023-04-18T01:36:39.109Z,648.62
2023-04-18T01:37:38.949Z,647.64
2023-04-18T01:38:38.994Z,648.18
2023-04-18T01:39:38.945Z,647.60
2023-04-18T01:40:38.944Z,648.25
2023-04-18T01:41:38.907Z,650.08
2023-04-18T01:42:38.897Z,651.81
2023-04-18T01:43:38.896Z,652.12
2023-04-18T01:44:38.892Z,652.05
2023-04-18T01:45:38.860Z,650.76
2023-04-18T01:46:38.884Z,651.05
2023-04-18T01:47:38.884Z,650.58
2023-04-18T01:48:38.861Z,652.76
2023-04-18T01:49:38.830Z,649.51
2023-04-18T01:50:38.814Z,648.99
2023-04-18T01:51:38.879Z,650.28
2023-04-18T01:52:38.794Z,648.71
2023-04-18T01:53:38.777Z,647.83
2023-04-18T01:54:38.803Z,645.59
2023-04-18T01:55:38.767Z,645.77
2023-04-18T01:56:38.757Z,646.81
2023-04-18T01:57:38.730Z,647.21
2023-04-18T01:58:38.724Z,648.29
2023-04-18T01:59:38.808Z,649.78
2023-04-18T02:00:38.773Z,649.14
2023-04-18T02:01:38.715Z,649.63
2023-04-18T02:02:38.805Z,649.59
2023-04-18T02:03:38.913Z,650.56
2023-04-18T02:04:38.670Z,650.41
2023-04-18T02:05:38.645Z,650.71
2023-04-18T02:06:38.638Z,650.86
2023-04-18T02:07:38.624Z,652.34
2023-04-18T02:08:38.623Z,654.82
2023-04-18T02:09:38.614Z,653.24
2023-04-18T02:10:38.618Z,652.67
2023-04-18T02:11:38.582Z,651.14
2023-04-18T02:12:38.567Z,651.48
2023-04-18T02:13:38.565Z,652.83
2023-04-18T02:14:38.560Z,652.23
2023-04-18T02:15:38.538Z,652.04
2023-04-18T02:16:38.589Z,652.54
2023-04-18T02:17:38.563Z,652.85
2023-04-18T02:18:38.525Z,649.78
2023-04-18T02:19:38.531Z,648.54
2023-04-18T02:20:38.537Z,646.81
2023-04-18T02:21:38.485Z,647.76
2023-04-18T02:22:38.470Z,648.85
2023-04-18T02:23:38.474Z,649.65
2023-04-18T02:24:38.440Z,649.45
2023-04-18T02:25:38.448Z,649.28
2023-04-18T02:26:38.452Z,648.77
2023-04-18T02:27:38.404Z,648.65
2023-04-18T02:28:38.412Z,649.25
2023-04-18T02:29:38.397Z,648.95
2023-04-18T02:30:38.378Z,649.29
2023-04-18T02:31:38.387Z,649.45
2023-04-18T02:32:38.368Z,647.58
2023-04-18T02:33:38.352Z,647.64
2023-04-18T02:34:38.335Z,648.47
2023-04-18T02:35:38.336Z,648.83
2023-04-18T02:36:38.313Z,648.00
2023-04-18T02:37:38.877Z,648.14
2023-04-18T02:38:38.309Z,647.85
2023-04-18T02:39:38.275Z,649.98
2023-04-18T02:40:38.267Z,651.69
2023-04-18T02:41:38.284Z,649.91
2023-04-18T02:42:38.263Z,650.95
2023-04-18T02:43:45.738Z,650.00
2023-04-18T02:44:38.231Z,654.55
2023-04-18T02:45:38.239Z,653.41
2023-04-18T02:46:38.203Z,649.76
2023-04-18T02:47:51.202Z,646.98
2023-04-18T02:48:38.185Z,648.88
2023-04-18T02:49:38.168Z,648.38
2023-04-18T02:50:38.175Z,647.80
2023-04-18T02:51:38.142Z,647.27
2023-04-18T02:52:38.169Z,646.95
2023-04-18T02:53:38.123Z,647.39
2023-04-18T02:54:38.113Z,647.82
2023-04-18T02:55:38.113Z,647.28
2023-04-18T02:56:38.096Z,646.67
2023-04-18T02:57:38.075Z,648.44
2023-04-18T02:58:38.117Z,648.46
2023-04-18T02:59:38.061Z,647.96
2023-04-18T03:00:38.055Z,647.25
2023-04-18T03:01:38.094Z,647.29
2023-04-18T03:02:38.054Z,647.52
2023-04-18T03:03:38.026Z,647.99
2023-04-18T03:04:38.073Z,647.97
2023-04-18T03:05:38.002Z,647.86
2023-04-18T03:06:37.982Z,647.07
2023-04-18T03:07:37.974Z,648.30
2023-04-18T03:08:37.968Z,647.71
2023-04-18T03:09:37.956Z,648.31
2023-04-18T03:10:37.940Z,648.58
2023-04-18T03:11:37.926Z,647.95
2023-04-18T03:12:37.917Z,647.43
2023-04-18T03:13:37.918Z,646.45
2023-04-18T03:14:37.924Z,643.25
2023-04-18T03:15:37.951Z,642.27
2023-04-18T03:16:37.905Z,640.21
2023-04-18T03:17:37.915Z,639.40
2023-04-18T03:18:37.867Z,638.79
2023-04-18T03:19:37.845Z,640.33
2023-04-18T03:20:37.843Z,640.35
2023-04-18T03:21:37.825Z,638.86
2023-04-18T03:22:37.834Z,639.17
2023-04-18T03:23:37.793Z,639.95
2023-04-18T03:24:37.788Z,640.00
2023-04-18T03:25:37.785Z,640.76
2023-04-18T03:26:37.765Z,639.59
2023-04-18T03:27:37.750Z,641.26
2023-04-18T03:28:37.766Z,642.49
2023-04-18T03:29:37.734Z,641.65
2023-04-18T03:30:37.741Z,643.04
2023-04-18T03:31:37.809Z,642.42
2023-04-18T03:32:37.710Z,642.62
2023-04-18T03:33:37.718Z,642.18
2023-04-18T03:34:37.691Z,644.06
2023-04-18T03:35:37.671Z,643.15
2023-04-18T03:36:37.662Z,643.79
2023-04-18T03:37:37.644Z,643.92
2023-04-18T03:38:37.646Z,643.55
2023-04-18T03:39:37.632Z,644.09
2023-04-18T03:40:37.630Z,643.81
2023-04-18T03:41:37.603Z,642.62
2023-04-18T03:42:37.598Z,643.33
2023-04-18T03:43:37.580Z,642.78
2023-04-18T03:44:37.573Z,642.96
2023-04-18T03:45:37.572Z,642.31
2023-04-18T03:46:37.684Z,640.28
2023-04-18T03:47:37.580Z,640.10
2023-04-18T03:48:37.553Z,638.85
2023-04-18T03:49:37.530Z,639.68
2023-04-18T03:50:37.508Z,639.79
2023-04-18T03:51:37.501Z,639.72
2023-04-18T03:52:37.492Z,639.07
2023-04-18T03:53:37.471Z,640.15
2023-04-18T03:54:37.473Z,639.98
2023-04-18T03:55:37.453Z,639.58
2023-04-18T03:56:37.445Z,639.45
2023-04-18T03:57:37.442Z,639.90
2023-04-18T03:58:37.422Z,640.83
2023-04-18T03:59:37.421Z,640.60
2023-04-18T04:00:37.431Z,639.15
2023-04-18T04:01:37.410Z,640.02
2023-04-18T04:02:37.544Z,640.25
2023-04-18T04:03:37.655Z,639.54
2023-04-18T04:04:37.429Z,639.18
2023-04-18T04:05:37.345Z,639.33
2023-04-18T04:06:37.439Z,640.84
2023-04-18T04:07:37.323Z,641.60
2023-04-18T04:08:37.313Z,642.54
2023-04-18T04:09:37.323Z,641.66
2023-04-18T04:10:37.295Z,641.24
2023-04-18T04:11:37.288Z,641.91
2023-04-18T04:12:37.272Z,640.65
2023-04-18T04:13:37.264Z,641.21
2023-04-18T04:14:37.269Z,640.65
2023-04-18T04:15:37.237Z,640.15
2023-04-18T04:16:37.259Z,638.87
2023-04-18T04:17:37.235Z,637.41
2023-04-18T04:18:37.243Z,636.37
2023-04-18T04:19:37.200Z,637.63
2023-04-18T04:20:37.189Z,638.36
2023-04-18T04:21:37.197Z,637.38
2023-04-18T04:22:37.177Z,636.20
2023-04-18T04:23:37.150Z,636.79
2023-04-18T04:24:37.141Z,638.35
2023-04-18T04:25:37.130Z,637.07
2023-04-18T04:26:37.139Z,638.52
2023-04-18T04:27:37.115Z,638.69
2023-04-18T04:28:37.111Z,638.71
2023-04-18T04:29:37.092Z,639.09
2023-04-18T04:30:37.087Z,639.18
2023-04-18T04:31:37.150Z,638.92
2023-04-18T04:32:37.069Z,638.77
2023-04-18T04:33:37.055Z,639.97
2023-04-18T04:34:37.055Z,640.09
2023-04-18T04:35:37.024Z,641.05
2023-04-18T04:36:37.021Z,642.07
2023-04-18T04:37:36.996Z,642.28
2023-04-18T04:38:36.996Z,640.83
2023-04-18T04:39:36.976Z,641.10
2023-04-18T04:40:36.978Z,638.91
2023-04-18T04:41:36.950Z,637.67
2023-04-18T04:42:36.960Z,638.88
2023-04-18T04:43:36.930Z,640.27
2023-04-18T04:44:44.472Z,639.43
2023-04-18T04:45:36.942Z,639.14
2023-04-18T04:46:36.908Z,636.85
2023-04-18T04:47:36.905Z,635.68
2023-04-18T04:48:36.872Z,634.85
2023-04-18T04:49:36.869Z,633.24
2023-04-18T04:50:36.883Z,634.31
2023-04-18T04:51:36.851Z,634.06
2023-04-18T04:52:36.840Z,635.86
2023-04-18T04:53:36.833Z,636.96
2023-04-18T04:54:36.817Z,637.62
2023-04-18T04:55:36.800Z,637.29
2023-04-18T04:56:36.789Z,638.72
2023-04-18T04:57:36.792Z,638.10
2023-04-18T04:58:36.766Z,636.96
2023-04-18T04:59:36.755Z,636.87
2023-04-18T05:00:36.743Z,638.63
2023-04-18T05:01:36.773Z,639.50
2023-04-18T05:02:36.948Z,638.15
2023-04-18T05:03:36.965Z,638.50
2023-04-18T05:04:36.811Z,637.48
2023-04-18T05:05:36.691Z,637.19
2023-04-18T05:06:38.363Z,638.30
2023-04-18T05:07:36.672Z,638.38
2023-04-18T05:08:36.683Z,639.69
2023-04-18T05:09:36.652Z,640.18
2023-04-18T05:10:36.644Z,640.26
2023-04-18T05:11:36.660Z,641.13
2023-04-18T05:12:36.611Z,640.59
2023-04-18T05:13:36.610Z,640.92
2023-04-18T05:14:36.589Z,641.22
2023-04-18T05:15:36.588Z,641.11
2023-04-18T05:16:36.603Z,639.95
2023-04-18T05:17:36.601Z,640.28
2023-04-18T05:18:36.581Z,639.27
2023-04-18T05:19:36.541Z,640.27
2023-04-18T05:20:36.535Z,638.18
2023-04-18T05:21:36.546Z,637.56
2023-04-18T05:22:36.526Z,638.39
2023-04-18T05:23:36.499Z,638.08
2023-04-18T05:24:36.482Z,639.07
2023-04-18T05:25:36.517Z,638.19
2023-04-18T05:26:36.481Z,638.22
2023-04-18T05:27:36.452Z,638.54
2023-04-18T05:28:36.449Z,639.77
2023-04-18T05:29:36.439Z,639.84
2023-04-18T05:30:36.453Z,640.12
2023-04-18T05:31:36.584Z,641.20
2023-04-18T05:32:36.407Z,640.16
2023-04-18T05:33:36.386Z,639.26
2023-04-18T05:34:38.014Z,637.77
2023-04-18T05:35:36.389Z,636.27
2023-04-18T05:36:36.362Z,636.14
2023-04-18T05:37:36.362Z,635.73
2023-04-18T05:38:36.356Z,637.03
2023-04-18T05:39:36.336Z,637.28
2023-04-18T05:40:36.311Z,636.13
2023-04-18T05:41:36.312Z,636.93
2023-04-18T05:42:36.324Z,637.21
2023-04-18T05:43:36.297Z,637.03
2023-04-18T05:44:36.267Z,636.69
2023-04-18T05:45:36.300Z,636.90
2023-04-18T05:46:36.294Z,638.10
2023-04-18T05:47:36.297Z,638.06
2023-04-18T05:48:36.225Z,637.95
2023-04-18T05:49:36.228Z,639.15
2023-04-18T05:50:36.258Z,639.74
2023-04-18T05:51:36.197Z,639.88
2023-04-18T05:52:36.206Z,640.30
2023-04-18T05:53:36.180Z,639.68
2023-04-18T05:54:36.234Z,637.94
2023-04-18T05:55:36.175Z,636.79
2023-04-18T05:56:36.148Z,635.80
2023-04-18T05:57:36.203Z,634.60
2023-04-18T05:58:36.135Z,635.33
2023-04-18T05:59:36.131Z,634.07
2023-04-18T06:00:36.104Z,634.30
2023-04-18T06:01:36.094Z,633.75
2023-04-18T06:02:36.197Z,633.54
2023-04-18T06:03:36.378Z,632.45
2023-04-18T06:04:36.169Z,633.27
2023-04-18T06:05:36.276Z,633.66
2023-04-18T06:06:36.060Z,633.66
2023-04-18T06:07:36.062Z,634.16
2023-04-18T06:08:36.013Z,633.60
2023-04-18T06:09:37.117Z,634.02
2023-04-18T06:10:38.423Z,634.19
2023-04-18T06:11:35.994Z,635.55
2023-04-18T06:12:35.985Z,636.44
2023-04-18T06:13:35.957Z,635.56
2023-04-18T06:14:35.946Z,636.55
2023-04-18T06:15:35.945Z,636.31
2023-04-18T06:16:35.944Z,635.91
2023-04-18T06:17:36.001Z,636.56
2023-04-18T06:18:35.966Z,636.18
2023-04-18T06:19:35.908Z,637.21
2023-04-18T06:20:35.877Z,635.85
2023-04-18T06:21:35.892Z,635.26
2023-04-18T06:22:35.856Z,634.19
2023-04-18T06:23:35.859Z,633.51
2023-04-18T06:24:35.831Z,632.94
2023-04-18T06:25:35.827Z,632.89
2023-04-18T06:26:35.827Z,632.31
2023-04-18T06:27:35.811Z,630.86
2023-04-18T06:28:35.824Z,630.67
2023-04-18T06:29:36.847Z,629.19
2023-04-18T06:30:35.766Z,628.80
2023-04-18T06:31:35.804Z,630.32
2023-04-18T06:32:35.835Z,630.55
2023-04-18T06:33:35.742Z,631.74
2023-04-18T06:34:35.725Z,633.89
2023-04-18T06:35:35.714Z,635.46
2023-04-18T06:36:35.714Z,634.61
2023-04-18T06:37:35.698Z,636.05
2023-04-18T06:38:35.716Z,637.19
2023-04-18T06:39:35.710Z,638.59
2023-04-18T06:40:35.708Z,640.66
2023-04-18T06:41:36.497Z,640.15
2023-04-18T06:42:35.817Z,638.01
2023-04-18T06:43:35.656Z,636.79
2023-04-18T06:44:35.695Z,636.49
2023-04-18T06:45:42.688Z,635.23
2023-04-18T06:46:35.664Z,637.93
2023-04-18T06:47:35.634Z,637.40
2023-04-18T06:48:35.574Z,635.82
2023-04-18T06:49:35.596Z,635.09
2023-04-18T06:50:35.559Z,635.41
2023-04-18T06:51:35.565Z,633.13
2023-04-18T06:52:35.532Z,634.33
2023-04-18T06:53:35.516Z,634.34
2023-04-18T06:54:35.507Z,634.04
2023-04-18T06:55:35.495Z,633.06
2023-04-18T06:56:36.593Z,632.94
2023-04-18T06:57:35.497Z,631.68
2023-04-18T06:58:35.551Z,630.81
2023-04-18T06:59:35.454Z,630.00
2023-04-18T07:00:35.440Z,629.20
2023-04-18T07:01:35.522Z,629.05
2023-04-18T07:02:35.568Z,630.19
2023-04-18T07:03:35.566Z,630.73
2023-04-18T07:04:35.494Z,631.60
2023-04-18T07:05:35.389Z,632.67
2023-04-18T07:06:35.375Z,633.95
2023-04-18T07:07:35.393Z,635.01
2023-04-18T07:08:35.357Z,635.93
2023-04-18T07:09:35.380Z,635.80
2023-04-18T07:10:35.330Z,635.75
2023-04-18T07:11:35.337Z,635.82
2023-04-18T07:12:35.408Z,635.78
2023-04-18T07:13:35.321Z,635.39
2023-04-18T07:14:36.146Z,635.18
2023-04-18T07:15:35.302Z,635.62
2023-04-18T07:16:35.296Z,635.51
2023-04-18T07:17:35.315Z,637.77
2023-04-18T07:18:38.279Z,637.79
2023-04-18T07:19:35.235Z,639.81
2023-04-18T07:20:35.245Z,638.51
2023-04-18T07:21:35.225Z,637.40
2023-04-18T07:22:35.201Z,637.47
2023-04-18T07:23:35.218Z,638.24
2023-04-18T07:24:35.240Z,638.16
2023-04-18T07:25:35.171Z,638.66
2023-04-18T07:26:35.153Z,639.64
2023-04-18T07:27:35.243Z,640.30
2023-04-18T07:28:35.154Z,639.91
2023-04-18T07:29:35.141Z,640.51
2023-04-18T07:30:35.334Z,640.12
2023-04-18T07:31:35.150Z,639.46
2023-04-18T07:32:35.161Z,638.81
2023-04-18T07:33:35.089Z,637.38
2023-04-18T07:34:35.078Z,637.38
2023-04-18T07:35:35.084Z,638.57
2023-04-18T07:36:35.070Z,638.69
2023-04-18T07:37:35.061Z,636.34
2023-04-18T07:38:35.051Z,636.31
2023-04-18T07:39:35.028Z,638.02
2023-04-18T07:40:35.026Z,637.80
2023-04-18T07:41:35.000Z,637.36
2023-04-18T07:42:34.990Z,638.14
2023-04-18T07:43:34.973Z,637.60
2023-04-18T07:44:34.967Z,639.98
2023-04-18T07:45:34.978Z,641.62
2023-04-18T07:46:34.994Z,640.98
2023-04-18T07:47:34.990Z,641.77
2023-04-18T07:48:35.168Z,640.66
2023-04-18T07:49:34.905Z,638.66
2023-04-18T07:50:34.906Z,638.04
2023-04-18T07:51:34.947Z,639.04
2023-04-18T07:52:34.892Z,639.39
2023-04-18T07:53:34.863Z,639.40
2023-04-18T07:54:34.853Z,642.20
2023-04-18T07:55:34.876Z,643.26
2023-04-18T07:56:34.849Z,644.41
2023-04-18T07:57:34.823Z,644.35
2023-04-18T07:58:34.814Z,642.31
2023-04-18T07:59:34.827Z,639.75
2023-04-18T08:00:35.312Z,639.35
2023-04-18T08:01:34.838Z,640.94
2023-04-18T08:02:34.949Z,642.92
2023-04-18T08:03:34.851Z,644.88
2023-04-18T08:04:34.935Z,648.10
2023-04-18T08:05:35.039Z,648.28
2023-04-18T08:06:35.214Z,650.00
2023-04-18T08:07:34.736Z,652.44
2023-04-18T08:08:34.698Z,652.51
2023-04-18T08:09:34.703Z,651.08
2023-04-18T08:10:34.712Z,650.46
2023-04-18T08:11:34.679Z,650.78
2023-04-18T08:12:34.658Z,647.02
2023-04-18T08:13:34.646Z,646.11
2023-04-18T08:14:34.647Z,647.47
2023-04-18T08:15:34.634Z,646.84
2023-04-18T08:16:34.657Z,647.48
2023-04-18T08:17:34.653Z,648.91
2023-04-18T08:18:34.620Z,648.63
2023-04-18T08:19:34.610Z,648.40
2023-04-18T08:20:34.680Z,647.95
2023-04-18T08:21:34.561Z,648.63
2023-04-18T08:22:34.549Z,649.24
2023-04-18T08:23:34.548Z,649.13
2023-04-18T08:24:34.526Z,647.36
2023-04-18T08:25:34.523Z,646.92
2023-04-18T08:26:34.567Z,646.00
2023-04-18T08:27:34.506Z,646.47
2023-04-18T08:28:34.493Z,644.92
2023-04-18T08:29:34.480Z,644.32
2023-04-18T08:30:34.988Z,645.30
2023-04-18T08:31:34.479Z,644.73
2023-04-18T08:32:34.476Z,646.28
2023-04-18T08:33:34.677Z,646.69
2023-04-18T08:34:34.466Z,647.26
2023-04-18T08:35:34.408Z,647.64
2023-04-18T08:36:34.413Z,650.07
2023-04-18T08:37:34.398Z,649.34
2023-04-18T08:38:34.552Z,649.90
2023-04-18T08:39:34.376Z,649.00
2023-04-18T08:40:34.355Z,648.51
2023-04-18T08:41:34.425Z,647.98
2023-04-18T08:42:34.377Z,650.47
2023-04-18T08:43:34.337Z,651.70
2023-04-18T08:44:34.332Z,649.80
2023-04-18T08:45:34.508Z,648.69
2023-04-18T08:46:41.810Z,647.97
2023-04-18T08:47:34.371Z,651.12
2023-04-18T08:48:34.368Z,648.52
2023-04-18T08:49:34.255Z,647.22
2023-04-18T08:50:34.258Z,648.32
2023-04-18T08:51:34.246Z,648.07
2023-04-18T08:52:34.265Z,650.17
2023-04-18T08:53:34.226Z,649.12
2023-04-18T08:54:34.192Z,648.36
2023-04-18T08:55:34.188Z,645.92
2023-04-18T08:56:34.184Z,648.60
2023-04-18T08:57:34.171Z,647.72
2023-04-18T08:58:34.194Z,649.98
2023-04-18T08:59:34.145Z,648.66
2023-04-18T09:00:34.141Z,647.40
2023-04-18T09:01:34.131Z,646.16
2023-04-18T09:02:34.247Z,645.75
2023-04-18T09:03:34.169Z,648.60
2023-04-18T09:04:34.274Z,650.09
2023-04-18T09:05:34.114Z,649.07
2023-04-18T09:06:34.084Z,651.15
2023-04-18T09:07:34.065Z,649.41
2023-04-18T09:08:34.042Z,648.39
2023-04-18T09:09:34.029Z,649.41
2023-04-18T09:10:34.028Z,650.49
2023-04-18T09:11:34.045Z,650.28
2023-04-18T09:12:33.994Z,650.45
2023-04-18T09:13:33.990Z,651.37
2023-04-18T09:14:33.985Z,651.03
2023-04-18T09:15:33.960Z,650.85
2023-04-18T09:16:34.177Z,653.82
2023-04-18T09:17:34.053Z,659.69
2023-04-18T09:18:33.944Z,658.05
2023-04-18T09:19:33.936Z,659.52
2023-04-18T09:20:33.933Z,657.64
2023-04-18T09:21:33.906Z,659.79
2023-04-18T09:22:33.986Z,656.69
2023-04-18T09:23:33.961Z,654.13
2023-04-18T09:24:33.866Z,655.36
2023-04-18T09:25:33.900Z,656.34
2023-04-18T09:26:34.540Z,658.37
2023-04-18T09:27:33.928Z,658.32
2023-04-18T09:28:33.873Z,654.76
2023-04-18T09:29:33.822Z,654.91
2023-04-18T09:30:33.853Z,654.95
2023-04-18T09:31:33.825Z,655.36
2023-04-18T09:32:33.862Z,655.23
2023-04-18T09:33:33.787Z,654.53
2023-04-18T09:34:34.080Z,652.57
2023-04-18T09:35:33.741Z,652.76
2023-04-18T09:36:33.783Z,656.40
2023-04-18T09:37:34.089Z,654.04
2023-04-18T09:38:33.862Z,653.73
2023-04-18T09:39:33.729Z,654.46
2023-04-18T09:40:33.692Z,651.40
2023-04-18T09:41:33.686Z,652.89
2023-04-18T09:42:33.690Z,654.15
2023-04-18T09:43:33.655Z,658.40
2023-04-18T09:44:33.647Z,663.17
2023-04-18T09:45:33.711Z,661.04
2023-04-18T09:46:33.656Z,661.32
2023-04-18T09:47:33.656Z,661.01
2023-04-18T09:48:33.613Z,660.06
2023-04-18T09:49:33.763Z,662.47
2023-04-18T09:50:33.588Z,663.47
2023-04-18T09:51:33.586Z,661.63
2023-04-18T09:52:33.590Z,661.81
2023-04-18T09:53:33.545Z,662.40
2023-04-18T09:54:33.577Z,663.16
2023-04-18T09:55:33.558Z,663.48
2023-04-18T09:56:33.523Z,664.64
2023-04-18T09:57:33.532Z,662.61
2023-04-18T09:58:33.496Z,665.43
2023-04-18T09:59:33.532Z,667.19
2023-04-18T10:00:33.492Z,667.78
2023-04-18T10:01:33.515Z,668.36
2023-04-18T10:02:33.521Z,668.39
2023-04-18T10:03:33.711Z,670.57
2023-04-18T10:04:33.504Z,671.97
2023-04-18T10:05:33.512Z,669.66
2023-04-18T10:06:33.438Z,673.47
2023-04-18T10:07:33.390Z,671.18
2023-04-18T10:08:33.387Z,670.22
2023-04-18T10:09:33.361Z,671.97
2023-04-18T10:10:33.523Z,670.77
2023-04-18T10:11:33.367Z,671.07
2023-04-18T10:12:33.346Z,671.07
2023-04-18T10:13:33.356Z,670.55
2023-04-18T10:14:33.349Z,671.70
2023-04-18T10:15:33.317Z,672.26
2023-04-18T10:16:34.954Z,671.55
2023-04-18T10:17:33.296Z,671.78
2023-04-18T10:18:33.321Z,672.16
2023-04-18T10:19:33.267Z,672.94
2023-04-18T10:20:33.280Z,673.85
2023-04-18T10:21:33.233Z,671.46
2023-04-18T10:22:33.223Z,669.62
2023-04-18T10:23:33.317Z,671.04
2023-04-18T10:24:33.215Z,672.26
2023-04-18T10:25:33.205Z,673.35
2023-04-18T10:26:33.206Z,674.49
2023-04-18T10:27:33.183Z,672.58
2023-04-18T10:28:33.162Z,673.98
2023-04-18T10:29:33.161Z,672.72
2023-04-18T10:30:33.145Z,674.57
2023-04-18T10:31:33.188Z,672.16
2023-04-18T10:32:33.159Z,673.55
2023-04-18T10:33:33.726Z,672.73
2023-04-18T10:34:33.110Z,671.66
2023-04-18T10:35:33.091Z,670.00
2023-04-18T10:36:33.189Z,671.73
2023-04-18T10:37:33.061Z,671.69
2023-04-18T10:38:33.072Z,675.76
2023-04-18T10:39:33.056Z,673.25
2023-04-18T10:40:33.038Z,672.27
2023-04-18T10:41:33.071Z,675.28
2023-04-18T10:42:33.127Z,674.26
2023-04-18T10:43:33.010Z,673.45
2023-04-18T10:44:32.992Z,677.78
2023-04-18T10:45:32.981Z,677.25
2023-04-18T10:46:33.114Z,682.17
2023-04-18T10:47:40.633Z,680.07
2023-04-18T10:48:32.951Z,679.65
2023-04-18T10:49:33.100Z,677.19
2023-04-18T10:50:32.940Z,680.12
2023-04-18T10:51:32.910Z,679.12
2023-04-18T10:52:32.916Z,677.94
2023-04-18T10:53:32.885Z,681.75
2023-04-18T10:54:32.892Z,681.94
2023-04-18T10:55:32.868Z,678.47
2023-04-18T10:56:32.859Z,680.74
2023-04-18T10:57:32.866Z,677.73
2023-04-18T10:58:32.872Z,678.47
2023-04-18T10:59:32.891Z,680.94
2023-04-18T11:00:32.826Z,681.83
2023-04-18T11:01:33.320Z,682.41
2023-04-18T11:02:33.073Z,683.38
2023-04-18T11:03:32.866Z,682.54
2023-04-18T11:04:32.801Z,681.83
2023-04-18T11:05:32.784Z,681.24
2023-04-18T11:06:32.750Z,680.67
2023-04-18T11:07:33.579Z,681.96
2023-04-18T11:08:32.729Z,681.48
2023-04-18T11:09:32.745Z,681.95
2023-04-18T11:10:32.703Z,680.68
2023-04-18T11:11:32.707Z,682.48
2023-04-18T11:12:32.704Z,682.02
2023-04-18T11:13:32.685Z,681.80
2023-04-18T11:14:32.713Z,682.79
2023-04-18T11:15:32.667Z,684.58
2023-04-18T11:16:32.759Z,689.05
2023-04-18T11:17:32.712Z,685.65
2023-04-18T11:18:32.616Z,688.52
2023-04-18T11:19:32.614Z,685.11
2023-04-18T11:20:32.634Z,699.27
2023-04-18T11:21:32.628Z,696.35
2023-04-18T11:22:32.587Z,691.82
2023-04-18T11:23:32.575Z,690.21
2023-04-18T11:24:32.552Z,688.08
2023-04-18T11:25:32.543Z,689.88
2023-04-18T11:26:32.573Z,689.17
2023-04-18T11:27:32.516Z,690.67
2023-04-18T11:28:32.510Z,693.50
2023-04-18T11:29:32.498Z,692.64
2023-04-18T11:30:32.619Z,689.76
2023-04-18T11:31:32.502Z,691.20
2023-04-18T11:32:32.535Z,694.28
2023-04-18T11:33:32.493Z,691.81
2023-04-18T11:34:32.492Z,695.49
2023-04-18T11:35:32.453Z,697.56
2023-04-18T11:36:32.417Z,698.01
2023-04-18T11:37:32.417Z,695.77
2023-04-18T11:38:32.409Z,692.87
2023-04-18T11:39:32.390Z,690.62
2023-04-18T11:40:32.405Z,692.94
2023-04-18T11:41:32.359Z,694.02
2023-04-18T11:42:32.370Z,693.23
2023-04-18T11:43:32.337Z,700.81
2023-04-18T11:44:34.338Z,697.75
2023-04-18T11:45:32.314Z,692.94
2023-04-18T11:46:32.548Z,694.20
2023-04-18T11:47:32.327Z,690.06
2023-04-18T11:48:32.304Z,694.24
2023-04-18T11:49:32.278Z,696.56
2023-04-18T11:50:32.288Z,699.93
2023-04-18T11:51:32.262Z,696.44
2023-04-18T11:52:32.243Z,694.41
2023-04-18T11:53:32.238Z,695.47
2023-04-18T11:54:32.219Z,693.68
2023-04-18T11:55:32.216Z,698.37
2023-04-18T11:56:33.508Z,699.61
2023-04-18T11:57:32.182Z,704.79
2023-04-18T11:58:32.180Z,701.55
2023-04-18T11:59:32.162Z,703.09
2023-04-18T12:00:32.175Z,699.37
2023-04-18T12:01:32.138Z,701.96
2023-04-18T12:02:32.479Z,702.80
2023-04-18T12:03:32.306Z,701.02
2023-04-18T12:04:32.247Z,702.62
2023-04-18T12:05:32.346Z,697.76
2023-04-18T12:06:32.267Z,700.26
2023-04-18T12:07:32.080Z,704.73
2023-04-18T12:08:32.122Z,707.54
2023-04-18T12:09:32.076Z,704.30
2023-04-18T12:10:32.050Z,708.50
2023-04-18T12:11:32.061Z,707.39
2023-04-18T12:12:32.028Z,703.43
2023-04-18T12:13:32.041Z,704.17
2023-04-18T12:14:32.011Z,702.95
2023-04-18T12:15:32.016Z,703.40
2023-04-18T12:16:32.056Z,704.47
2023-04-18T12:17:31.988Z,701.89
2023-04-18T12:18:31.984Z,702.35
2023-04-18T12:19:31.956Z,702.15
2023-04-18T12:20:31.951Z,702.39
2023-04-18T12:21:31.932Z,702.05
2023-04-18T12:22:31.916Z,706.53
2023-04-18T12:23:31.938Z,706.33
2023-04-18T12:24:31.909Z,703.58
2023-04-18T12:25:31.916Z,702.93
2023-04-18T12:26:31.872Z,701.84
2023-04-18T12:27:31.855Z,701.65
2023-04-18T12:28:31.859Z,714.25